sensor_id;sensor_type;location;lat;lon;timestamp;P1;durP1;ratioP1;P2;durP2;ratioP2
12906;SDS011;6521;50.498;8.474;2023-04-24T00:02:29;1.60;;;1.27;;
12906;SDS011;6521;50.498;8.474;2023-04-24T00:05:01;1.63;;;1.27;;
12906;SDS011;6521;50.498;8.474;2023-04-24T00:07:33;1.33;;;1.23;;
12906;SDS011;6521;50.498;8.474;2023-04-24T00:10:07;2.70;;;1.40;;
12906;SDS011;6521;50.498;8.474;2023-04-24T00:12:39;3.00;;;1.30;;
12906;SDS011;6521;50.498;8.474;2023-04-24T00:15:09;2.53;;;1.50;;
12906;SDS011;6521;50.498;8.474;2023-04-24T00:17:56;2.13;;;1.30;;
12906;SDS011;6521;50.498;8.474;2023-04-24T00:20:45;1.40;;;1.00;;
12906;SDS011;6521;50.498;8.474;2023-04-24T00:23:17;1.20;;;1.10;;
12906;SDS011;6521;50.498;8.474;2023-04-24T00:26:32;3.33;;;1.10;;
12906;SDS011;6521;50.498;8.474;2023-04-24T00:29:03;1.13;;;1.00;;
12906;SDS011;6521;50.498;8.474;2023-04-24T00:31:34;2.93;;;1.00;;
12906;SDS011;6521;50.498;8.474;2023-04-24T00:34:05;1.57;;;1.20;;
12906;SDS011;6521;50.498;8.474;2023-04-24T00:40:05;2.13;;;1.00;;
12906;SDS011;6521;50.498;8.474;2023-04-24T00:42:36;1.17;;;1.03;;
12906;SDS011;6521;50.498;8.474;2023-04-24T00:45:08;1.10;;;1.00;;
12906;SDS011;6521;50.498;8.474;2023-04-24T00:47:39;4.20;;;1.37;;
12906;SDS011;6521;50.498;8.474;2023-04-24T00:50:12;1.40;;;1.30;;
12906;SDS011;6521;50.498;8.474;2023-04-24T00:52:45;2.43;;;1.60;;
12906;SDS011;6521;50.498;8.474;2023-04-24T00:55:16;2.17;;;1.40;;
12906;SDS011;6521;50.498;8.474;2023-04-24T00:57:47;5.27;;;1.50;;
12906;SDS011;6521;50.498;8.474;2023-04-24T01:00:19;1.30;;;1.20;;
12906;SDS011;6521;50.498;8.474;2023-04-24T01:02:50;3.30;;;1.50;;
12906;SDS011;6521;50.498;8.474;2023-04-24T01:05:22;2.17;;;1.63;;
12906;SDS011;6521;50.498;8.474;2023-04-24T01:07:53;1.40;;;1.30;;
12906;SDS011;6521;50.498;8.474;2023-04-24T01:10:24;2.83;;;1.70;;
12906;SDS011;6521;50.498;8.474;2023-04-24T01:12:58;2.37;;;1.60;;
12906;SDS011;6521;50.498;8.474;2023-04-24T01:15:29;1.50;;;1.37;;
12906;SDS011;6521;50.498;8.474;2023-04-24T01:18:00;1.53;;;1.43;;
12906;SDS011;6521;50.498;8.474;2023-04-24T01:20:31;2.13;;;1.40;;
12906;SDS011;6521;50.498;8.474;2023-04-24T01:23:03;3.10;;;1.50;;
12906;SDS011;6521;50.498;8.474;2023-04-24T01:25:34;3.97;;;1.90;;
12906;SDS011;6521;50.498;8.474;2023-04-24T01:28:05;7.07;;;2.47;;
12906;SDS011;6521;50.498;8.474;2023-04-24T01:30:37;3.63;;;1.83;;
12906;SDS011;6521;50.498;8.474;2023-04-24T01:33:07;2.87;;;1.57;;
12906;SDS011;6521;50.498;8.474;2023-04-24T01:35:39;1.93;;;1.50;;
12906;SDS011;6521;50.498;8.474;2023-04-24T01:38:16;1.60;;;1.50;;
12906;SDS011;6521;50.498;8.474;2023-04-24T01:40:47;1.70;;;1.60;;
12906;SDS011;6521;50.498;8.474;2023-04-24T01:43:18;2.87;;;1.70;;
12906;SDS011;6521;50.498;8.474;2023-04-24T01:45:49;4.57;;;1.80;;
12906;SDS011;6521;50.498;8.474;2023-04-24T01:48:20;3.30;;;1.70;;
12906;SDS011;6521;50.498;8.474;2023-04-24T01:50:51;3.40;;;1.90;;
12906;SDS011;6521;50.498;8.474;2023-04-24T01:53:22;2.47;;;2.10;;
12906;SDS011;6521;50.498;8.474;2023-04-24T01:55:52;2.53;;;2.30;;
12906;SDS011;6521;50.498;8.474;2023-04-24T01:58:26;2.63;;;2.07;;
12906;SDS011;6521;50.498;8.474;2023-04-24T02:01:00;3.53;;;2.07;;
12906;SDS011;6521;50.498;8.474;2023-04-24T02:03:34;4.67;;;2.67;;
12906;SDS011;6521;50.498;8.474;2023-04-24T02:06:05;5.10;;;2.70;;
12906;SDS011;6521;50.498;8.474;2023-04-24T02:08:36;5.43;;;3.33;;
12906;SDS011;6521;50.498;8.474;2023-04-24T02:11:10;3.93;;;2.13;;
12906;SDS011;6521;50.498;8.474;2023-04-24T02:13:41;4.10;;;1.80;;
12906;SDS011;6521;50.498;8.474;2023-04-24T02:16:12;2.07;;;1.40;;
12906;SDS011;6521;50.498;8.474;2023-04-24T02:18:42;1.70;;;1.23;;
12906;SDS011;6521;50.498;8.474;2023-04-24T02:21:14;1.93;;;1.40;;
12906;SDS011;6521;50.498;8.474;2023-04-24T02:23:45;1.60;;;1.50;;
12906;SDS011;6521;50.498;8.474;2023-04-24T02:26:17;3.07;;;1.33;;
12906;SDS011;6521;50.498;8.474;2023-04-24T02:28:48;1.30;;;1.20;;
12906;SDS011;6521;50.498;8.474;2023-04-24T02:31:19;1.47;;;1.17;;
12906;SDS011;6521;50.498;8.474;2023-04-24T02:33:52;1.60;;;1.40;;
12906;SDS011;6521;50.498;8.474;2023-04-24T02:36:23;1.30;;;1.20;;
12906;SDS011;6521;50.498;8.474;2023-04-24T02:38:54;1.67;;;1.20;;
12906;SDS011;6521;50.498;8.474;2023-04-24T02:41:25;2.70;;;1.13;;
12906;SDS011;6521;50.498;8.474;2023-04-24T02:44:01;1.73;;;1.40;;
12906;SDS011;6521;50.498;8.474;2023-04-24T02:46:32;2.23;;;1.40;;
12906;SDS011;6521;50.498;8.474;2023-04-24T02:49:03;2.17;;;1.13;;
12906;SDS011;6521;50.498;8.474;2023-04-24T02:51:34;2.40;;;1.33;;
12906;SDS011;6521;50.498;8.474;2023-04-24T02:54:05;2.13;;;1.20;;
12906;SDS011;6521;50.498;8.474;2023-04-24T02:56:36;1.43;;;1.33;;
12906;SDS011;6521;50.498;8.474;2023-04-24T02:59:08;1.20;;;1.10;;
12906;SDS011;6521;50.498;8.474;2023-04-24T03:01:39;1.83;;;1.40;;
12906;SDS011;6521;50.498;8.474;2023-04-24T03:04:10;1.77;;;1.23;;
12906;SDS011;6521;50.498;8.474;2023-04-24T03:06:41;2.67;;;1.67;;
12906;SDS011;6521;50.498;8.474;2023-04-24T03:09:14;2.27;;;1.30;;
12906;SDS011;6521;50.498;8.474;2023-04-24T03:14:41;4.53;;;1.50;;
12906;SDS011;6521;50.498;8.474;2023-04-24T03:17:12;3.03;;;1.30;;
12906;SDS011;6521;50.498;8.474;2023-04-24T03:26:44;1.47;;;1.33;;
12906;SDS011;6521;50.498;8.474;2023-04-24T03:30:04;2.20;;;1.50;;
12906;SDS011;6521;50.498;8.474;2023-04-24T03:33:05;1.30;;;1.20;;
12906;SDS011;6521;50.498;8.474;2023-04-24T03:35:50;2.40;;;1.53;;
12906;SDS011;6521;50.498;8.474;2023-04-24T03:38:21;1.93;;;1.70;;
12906;SDS011;6521;50.498;8.474;2023-04-24T03:41:03;1.70;;;1.60;;
12906;SDS011;6521;50.498;8.474;2023-04-24T03:43:50;1.77;;;1.60;;
12906;SDS011;6521;50.498;8.474;2023-04-24T03:46:21;2.13;;;1.97;;
12906;SDS011;6521;50.498;8.474;2023-04-24T03:48:58;1.77;;;1.67;;
12906;SDS011;6521;50.498;8.474;2023-04-24T03:51:33;2.40;;;1.83;;
12906;SDS011;6521;50.498;8.474;2023-04-24T03:54:21;3.10;;;1.60;;
12906;SDS011;6521;50.498;8.474;2023-04-24T03:56:57;2.60;;;2.10;;
12906;SDS011;6521;50.498;8.474;2023-04-24T03:59:30;3.50;;;2.27;;
12906;SDS011;6521;50.498;8.474;2023-04-24T04:02:13;3.97;;;2.23;;
12906;SDS011;6521;50.498;8.474;2023-04-24T04:04:45;3.70;;;2.03;;
12906;SDS011;6521;50.498;8.474;2023-04-24T04:07:15;1.97;;;1.83;;
12906;SDS011;6521;50.498;8.474;2023-04-24T04:09:46;4.20;;;1.90;;
12906;SDS011;6521;50.498;8.474;2023-04-24T04:12:17;3.53;;;2.13;;
12906;SDS011;6521;50.498;8.474;2023-04-24T04:14:54;2.33;;;2.13;;
12906;SDS011;6521;50.498;8.474;2023-04-24T04:17:25;2.47;;;1.90;;
12906;SDS011;6521;50.498;8.474;2023-04-24T04:19:56;3.40;;;2.30;;
12906;SDS011;6521;50.498;8.474;2023-04-24T04:22:27;3.17;;;1.80;;
12906;SDS011;6521;50.498;8.474;2023-04-24T04:24:58;4.23;;;2.43;;
12906;SDS011;6521;50.498;8.474;2023-04-24T04:27:30;3.73;;;2.73;;
12906;SDS011;6521;50.498;8.474;2023-04-24T04:30:07;3.37;;;2.47;;
12906;SDS011;6521;50.498;8.474;2023-04-24T04:32:48;3.97;;;2.37;;
12906;SDS011;6521;50.498;8.474;2023-04-24T04:35:19;2.97;;;2.27;;
12906;SDS011;6521;50.498;8.474;2023-04-24T04:37:53;4.60;;;2.70;;
12906;SDS011;6521;50.498;8.474;2023-04-24T04:40:42;2.20;;;2.00;;
12906;SDS011;6521;50.498;8.474;2023-04-24T04:43:15;2.50;;;2.30;;
12906;SDS011;6521;50.498;8.474;2023-04-24T04:45:52;2.47;;;2.27;;
12906;SDS011;6521;50.498;8.474;2023-04-24T04:48:48;2.17;;;2.00;;
12906;SDS011;6521;50.498;8.474;2023-04-24T04:51:19;2.77;;;2.57;;
12906;SDS011;6521;50.498;8.474;2023-04-24T04:53:50;4.67;;;2.53;;
12906;SDS011;6521;50.498;8.474;2023-04-24T04:56:21;3.77;;;2.40;;
12906;SDS011;6521;50.498;8.474;2023-04-24T04:58:54;2.50;;;2.30;;
12906;SDS011;6521;50.498;8.474;2023-04-24T05:01:25;3.00;;;2.70;;
12906;SDS011;6521;50.498;8.474;2023-04-24T05:03:59;3.50;;;2.87;;
12906;SDS011;6521;50.498;8.474;2023-04-24T05:06:30;3.37;;;2.30;;
12906;SDS011;6521;50.498;8.474;2023-04-24T05:09:01;2.60;;;2.40;;
12906;SDS011;6521;50.498;8.474;2023-04-24T05:11:45;3.60;;;2.60;;
12906;SDS011;6521;50.498;8.474;2023-04-24T05:14:16;2.53;;;2.33;;
12906;SDS011;6521;50.498;8.474;2023-04-24T05:19:45;4.00;;;2.73;;
12906;SDS011;6521;50.498;8.474;2023-04-24T05:22:21;4.50;;;2.70;;
12906;SDS011;6521;50.498;8.474;2023-04-24T05:24:57;2.97;;;2.50;;
12906;SDS011;6521;50.498;8.474;2023-04-24T05:27:34;3.17;;;2.50;;
12906;SDS011;6521;50.498;8.474;2023-04-24T05:30:07;5.30;;;2.93;;
12906;SDS011;6521;50.498;8.474;2023-04-24T05:32:38;4.73;;;2.30;;
12906;SDS011;6521;50.498;8.474;2023-04-24T05:35:25;2.90;;;2.33;;
12906;SDS011;6521;50.498;8.474;2023-04-24T05:37:58;2.80;;;2.47;;
12906;SDS011;6521;50.498;8.474;2023-04-24T05:40:29;3.60;;;2.47;;
12906;SDS011;6521;50.498;8.474;2023-04-24T05:43:00;2.53;;;2.13;;
12906;SDS011;6521;50.498;8.474;2023-04-24T05:45:32;2.83;;;2.43;;
12906;SDS011;6521;50.498;8.474;2023-04-24T05:48:03;5.30;;;2.50;;
12906;SDS011;6521;50.498;8.474;2023-04-24T05:50:34;3.23;;;2.40;;
12906;SDS011;6521;50.498;8.474;2023-04-24T05:53:05;5.30;;;3.03;;
12906;SDS011;6521;50.498;8.474;2023-04-24T05:55:39;2.87;;;2.43;;
12906;SDS011;6521;50.498;8.474;2023-04-24T05:58:10;3.50;;;2.40;;
12906;SDS011;6521;50.498;8.474;2023-04-24T06:00:43;4.13;;;3.03;;
12906;SDS011;6521;50.498;8.474;2023-04-24T06:03:16;4.47;;;3.00;;
12906;SDS011;6521;50.498;8.474;2023-04-24T06:05:47;3.53;;;3.23;;
12906;SDS011;6521;50.498;8.474;2023-04-24T06:08:20;4.77;;;3.73;;
12906;SDS011;6521;50.498;8.474;2023-04-24T06:10:52;5.30;;;3.70;;
12906;SDS011;6521;50.498;8.474;2023-04-24T06:13:25;3.93;;;3.53;;
12906;SDS011;6521;50.498;8.474;2023-04-24T06:16:14;4.07;;;3.67;;
12906;SDS011;6521;50.498;8.474;2023-04-24T06:18:50;5.70;;;3.57;;
12906;SDS011;6521;50.498;8.474;2023-04-24T06:21:21;4.80;;;3.90;;
12906;SDS011;6521;50.498;8.474;2023-04-24T06:23:52;7.50;;;3.80;;
12906;SDS011;6521;50.498;8.474;2023-04-24T06:26:23;4.10;;;3.70;;
12906;SDS011;6521;50.498;8.474;2023-04-24T06:28:55;5.43;;;3.30;;
12906;SDS011;6521;50.498;8.474;2023-04-24T06:31:26;4.53;;;3.70;;
12906;SDS011;6521;50.498;8.474;2023-04-24T06:33:58;4.70;;;3.67;;
12906;SDS011;6521;50.498;8.474;2023-04-24T06:36:29;5.73;;;3.50;;
12906;SDS011;6521;50.498;8.474;2023-04-24T06:39:01;4.00;;;3.53;;
12906;SDS011;6521;50.498;8.474;2023-04-24T06:41:32;6.37;;;4.27;;
12906;SDS011;6521;50.498;8.474;2023-04-24T06:44:03;4.70;;;4.20;;
12906;SDS011;6521;50.498;8.474;2023-04-24T06:46:34;6.87;;;4.00;;
12906;SDS011;6521;50.498;8.474;2023-04-24T06:49:04;5.03;;;4.27;;
12906;SDS011;6521;50.498;8.474;2023-04-24T06:51:35;5.50;;;4.53;;
12906;SDS011;6521;50.498;8.474;2023-04-24T06:54:06;5.43;;;4.63;;
12906;SDS011;6521;50.498;8.474;2023-04-24T06:56:37;6.23;;;5.03;;
12906;SDS011;6521;50.498;8.474;2023-04-24T06:59:08;5.73;;;4.47;;
12906;SDS011;6521;50.498;8.474;2023-04-24T07:01:39;7.50;;;5.20;;
12906;SDS011;6521;50.498;8.474;2023-04-24T07:04:10;6.30;;;5.40;;
12906;SDS011;6521;50.498;8.474;2023-04-24T07:06:42;5.20;;;4.70;;
12906;SDS011;6521;50.498;8.474;2023-04-24T07:09:13;6.30;;;5.17;;
12906;SDS011;6521;50.498;8.474;2023-04-24T07:11:45;6.93;;;5.00;;
12906;SDS011;6521;50.498;8.474;2023-04-24T07:14:17;5.53;;;4.53;;
12906;SDS011;6521;50.498;8.474;2023-04-24T07:16:48;5.50;;;4.50;;
12906;SDS011;6521;50.498;8.474;2023-04-24T07:19:19;8.53;;;5.00;;
12906;SDS011;6521;50.498;8.474;2023-04-24T07:21:49;7.03;;;4.47;;
12906;SDS011;6521;50.498;8.474;2023-04-24T07:24:24;8.17;;;4.60;;
12906;SDS011;6521;50.498;8.474;2023-04-24T07:26:59;5.93;;;4.57;;
12906;SDS011;6521;50.498;8.474;2023-04-24T07:29:31;7.07;;;4.63;;
12906;SDS011;6521;50.498;8.474;2023-04-24T07:32:02;6.47;;;4.00;;
12906;SDS011;6521;50.498;8.474;2023-04-24T07:34:33;4.87;;;3.90;;
12906;SDS011;6521;50.498;8.474;2023-04-24T07:37:04;5.60;;;3.97;;
12906;SDS011;6521;50.498;8.474;2023-04-24T07:39:37;5.30;;;4.00;;
12906;SDS011;6521;50.498;8.474;2023-04-24T07:42:08;4.60;;;4.20;;
12906;SDS011;6521;50.498;8.474;2023-04-24T07:44:39;4.87;;;4.37;;
12906;SDS011;6521;50.498;8.474;2023-04-24T07:47:10;4.40;;;4.00;;
12906;SDS011;6521;50.498;8.474;2023-04-24T07:49:41;6.73;;;4.00;;
12906;SDS011;6521;50.498;8.474;2023-04-24T07:52:12;4.20;;;3.80;;
12906;SDS011;6521;50.498;8.474;2023-04-24T07:54:43;6.47;;;3.67;;
12906;SDS011;6521;50.498;8.474;2023-04-24T07:57:14;5.13;;;4.17;;
12906;SDS011;6521;50.498;8.474;2023-04-24T07:59:45;5.27;;;4.07;;
12906;SDS011;6521;50.498;8.474;2023-04-24T08:02:15;6.33;;;4.23;;
12906;SDS011;6521;50.498;8.474;2023-04-24T08:04:46;5.97;;;4.23;;
12906;SDS011;6521;50.498;8.474;2023-04-24T08:07:29;4.63;;;3.57;;
12906;SDS011;6521;50.498;8.474;2023-04-24T08:10:00;6.07;;;4.20;;
12906;SDS011;6521;50.498;8.474;2023-04-24T08:12:31;4.10;;;3.70;;
12906;SDS011;6521;50.498;8.474;2023-04-24T08:15:02;5.60;;;3.87;;
12906;SDS011;6521;50.498;8.474;2023-04-24T08:17:33;4.03;;;3.60;;
12906;SDS011;6521;50.498;8.474;2023-04-24T08:20:05;5.23;;;3.47;;
12906;SDS011;6521;50.498;8.474;2023-04-24T08:22:40;6.87;;;3.57;;
12906;SDS011;6521;50.498;8.474;2023-04-24T08:25:11;3.53;;;3.23;;
12906;SDS011;6521;50.498;8.474;2023-04-24T08:27:42;3.77;;;3.33;;
12906;SDS011;6521;50.498;8.474;2023-04-24T08:30:58;4.87;;;4.17;;
12906;SDS011;6521;50.498;8.474;2023-04-24T08:33:29;7.73;;;3.80;;
12906;SDS011;6521;50.498;8.474;2023-04-24T08:36:05;4.13;;;3.43;;
12906;SDS011;6521;50.498;8.474;2023-04-24T08:38:36;4.33;;;3.93;;
12906;SDS011;6521;50.498;8.474;2023-04-24T08:41:26;3.90;;;3.47;;
12906;SDS011;6521;50.498;8.474;2023-04-24T08:47:20;5.33;;;2.93;;
12906;SDS011;6521;50.498;8.474;2023-04-24T08:49:57;5.33;;;3.93;;
12906;SDS011;6521;50.498;8.474;2023-04-24T08:52:30;3.73;;;3.33;;
12906;SDS011;6521;50.498;8.474;2023-04-24T08:55:01;4.43;;;3.30;;
12906;SDS011;6521;50.498;8.474;2023-04-24T08:57:33;4.27;;;3.23;;
12906;SDS011;6521;50.498;8.474;2023-04-24T09:00:04;4.10;;;3.20;;
12906;SDS011;6521;50.498;8.474;2023-04-24T09:02:36;7.10;;;3.93;;
12906;SDS011;6521;50.498;8.474;2023-04-24T09:05:29;3.43;;;3.10;;
12906;SDS011;6521;50.498;8.474;2023-04-24T09:08:06;3.30;;;3.00;;
12906;SDS011;6521;50.498;8.474;2023-04-24T09:10:39;3.17;;;2.73;;
12906;SDS011;6521;50.498;8.474;2023-04-24T09:13:11;3.57;;;2.90;;
12906;SDS011;6521;50.498;8.474;2023-04-24T09:15:42;3.23;;;2.97;;
12906;SDS011;6521;50.498;8.474;2023-04-24T09:18:13;7.10;;;2.60;;
12906;SDS011;6521;50.498;8.474;2023-04-24T09:21:00;3.27;;;2.80;;
12906;SDS011;6521;50.498;8.474;2023-04-24T09:23:37;3.83;;;2.90;;
12906;SDS011;6521;50.498;8.474;2023-04-24T09:26:09;2.60;;;2.40;;
12906;SDS011;6521;50.498;8.474;2023-04-24T09:28:41;4.77;;;2.60;;
12906;SDS011;6521;50.498;8.474;2023-04-24T09:31:13;3.03;;;2.63;;
12906;SDS011;6521;50.498;8.474;2023-04-24T09:35:05;3.40;;;2.70;;
12906;SDS011;6521;50.498;8.474;2023-04-24T09:37:42;2.87;;;2.60;;
12906;SDS011;6521;50.498;8.474;2023-04-24T09:40:18;3.73;;;2.43;;
12906;SDS011;6521;50.498;8.474;2023-04-24T09:42:52;5.73;;;2.00;;
12906;SDS011;6521;50.498;8.474;2023-04-24T09:45:35;3.60;;;2.10;;
12906;SDS011;6521;50.498;8.474;2023-04-24T09:48:10;2.20;;;2.00;;
12906;SDS011;6521;50.498;8.474;2023-04-24T09:50:42;2.97;;;1.97;;
12906;SDS011;6521;50.498;8.474;2023-04-24T09:53:29;4.00;;;2.13;;
12906;SDS011;6521;50.498;8.474;2023-04-24T09:56:02;4.97;;;2.47;;
12906;SDS011;6521;50.498;8.474;2023-04-24T09:58:37;3.07;;;2.20;;
12906;SDS011;6521;50.498;8.474;2023-04-24T10:01:08;2.33;;;2.13;;
12906;SDS011;6521;50.498;8.474;2023-04-24T10:03:38;3.03;;;2.10;;
12906;SDS011;6521;50.498;8.474;2023-04-24T10:06:12;2.70;;;2.13;;
12906;SDS011;6521;50.498;8.474;2023-04-24T10:08:43;2.30;;;1.90;;
12906;SDS011;6521;50.498;8.474;2023-04-24T10:11:16;1.97;;;1.83;;
12906;SDS011;6521;50.498;8.474;2023-04-24T10:13:47;3.47;;;2.10;;
12906;SDS011;6521;50.498;8.474;2023-04-24T10:16:19;5.47;;;3.73;;
12906;SDS011;6521;50.498;8.474;2023-04-24T10:18:52;1.53;;;1.43;;
12906;SDS011;6521;50.498;8.474;2023-04-24T10:21:24;4.60;;;2.00;;
12906;SDS011;6521;50.498;8.474;2023-04-24T10:23:56;1.53;;;1.10;;
12906;SDS011;6521;50.498;8.474;2023-04-24T10:26:30;1.67;;;1.13;;
12906;SDS011;6521;50.498;8.474;2023-04-24T10:29:01;2.70;;;1.00;;
12906;SDS011;6521;50.498;8.474;2023-04-24T10:31:36;0.90;;;0.80;;
12906;SDS011;6521;50.498;8.474;2023-04-24T10:34:08;1.60;;;1.20;;
12906;SDS011;6521;50.498;8.474;2023-04-24T10:36:41;1.83;;;1.30;;
12906;SDS011;6521;50.498;8.474;2023-04-24T10:39:18;2.73;;;2.30;;
12906;SDS011;6521;50.498;8.474;2023-04-24T10:41:50;2.03;;;0.97;;
12906;SDS011;6521;50.498;8.474;2023-04-24T10:44:22;1.50;;;1.40;;
12906;SDS011;6521;50.498;8.474;2023-04-24T10:46:54;2.50;;;2.00;;
12906;SDS011;6521;50.498;8.474;2023-04-24T10:49:29;1.40;;;1.30;;
12906;SDS011;6521;50.498;8.474;2023-04-24T10:52:02;1.37;;;1.27;;
12906;SDS011;6521;50.498;8.474;2023-04-24T10:54:42;2.20;;;1.50;;
12906;SDS011;6521;50.498;8.474;2023-04-24T11:02:50;3.00;;;1.10;;
12906;SDS011;6521;50.498;8.474;2023-04-24T11:05:35;1.27;;;1.17;;
12906;SDS011;6521;50.498;8.474;2023-04-24T11:08:23;2.70;;;2.10;;
12906;SDS011;6521;50.498;8.474;2023-04-24T11:11:11;1.20;;;1.10;;
12906;SDS011;6521;50.498;8.474;2023-04-24T11:21:48;1.47;;;1.30;;
12906;SDS011;6521;50.498;8.474;2023-04-24T11:27:25;2.23;;;1.30;;
12906;SDS011;6521;50.498;8.474;2023-04-24T11:30:01;1.23;;;1.13;;
12906;SDS011;6521;50.498;8.474;2023-04-24T11:35:06;1.20;;;1.10;;
12906;SDS011;6521;50.498;8.474;2023-04-24T11:37:41;2.20;;;1.30;;
12906;SDS011;6521;50.498;8.474;2023-04-24T11:40:24;1.07;;;1.03;;
12906;SDS011;6521;50.498;8.474;2023-04-24T11:42:55;1.30;;;1.20;;
12906;SDS011;6521;50.498;8.474;2023-04-24T11:45:27;1.87;;;1.37;;
12906;SDS011;6521;50.498;8.474;2023-04-24T11:47:59;2.00;;;1.90;;
12906;SDS011;6521;50.498;8.474;2023-04-24T11:50:30;3.47;;;1.13;;
12906;SDS011;6521;50.498;8.474;2023-04-24T11:53:01;1.17;;;1.00;;
12906;SDS011;6521;50.498;8.474;2023-04-24T11:55:34;1.27;;;1.17;;
12906;SDS011;6521;50.498;8.474;2023-04-24T11:58:05;1.40;;;1.10;;
12906;SDS011;6521;50.498;8.474;2023-04-24T12:00:37;0.97;;;0.93;;
12906;SDS011;6521;50.498;8.474;2023-04-24T12:03:09;1.00;;;0.90;;
12906;SDS011;6521;50.498;8.474;2023-04-24T12:05:41;0.90;;;0.90;;
12906;SDS011;6521;50.498;8.474;2023-04-24T12:08:12;1.73;;;1.27;;
12906;SDS011;6521;50.498;8.474;2023-04-24T12:10:57;1.27;;;1.00;;
12906;SDS011;6521;50.498;8.474;2023-04-24T12:13:31;1.60;;;1.10;;
12906;SDS011;6521;50.498;8.474;2023-04-24T12:16:03;2.00;;;1.80;;
12906;SDS011;6521;50.498;8.474;2023-04-24T12:18:35;1.70;;;1.33;;
12906;SDS011;6521;50.498;8.474;2023-04-24T12:21:19;1.80;;;1.53;;
12906;SDS011;6521;50.498;8.474;2023-04-24T12:23:54;3.93;;;1.83;;
12906;SDS011;6521;50.498;8.474;2023-04-24T12:26:26;3.50;;;1.83;;
12906;SDS011;6521;50.498;8.474;2023-04-24T12:29:01;3.07;;;1.67;;
12906;SDS011;6521;50.498;8.474;2023-04-24T12:31:32;1.80;;;1.63;;
12906;SDS011;6521;50.498;8.474;2023-04-24T12:34:03;3.90;;;2.40;;
12906;SDS011;6521;50.498;8.474;2023-04-24T12:36:34;5.17;;;3.00;;
12906;SDS011;6521;50.498;8.474;2023-04-24T12:39:13;3.03;;;2.50;;
12906;SDS011;6521;50.498;8.474;2023-04-24T12:41:55;3.20;;;2.47;;
12906;SDS011;6521;50.498;8.474;2023-04-24T12:44:31;3.00;;;2.63;;
12906;SDS011;6521;50.498;8.474;2023-04-24T12:47:04;7.60;;;3.70;;
12906;SDS011;6521;50.498;8.474;2023-04-24T12:49:38;4.87;;;3.00;;
12906;SDS011;6521;50.498;8.474;2023-04-24T12:52:10;7.63;;;3.70;;
12906;SDS011;6521;50.498;8.474;2023-04-24T12:54:41;6.27;;;3.10;;
12906;SDS011;6521;50.498;8.474;2023-04-24T12:57:17;3.33;;;3.00;;
12906;SDS011;6521;50.498;8.474;2023-04-24T12:59:48;3.13;;;2.57;;
12906;SDS011;6521;50.498;8.474;2023-04-24T13:02:19;4.33;;;2.70;;
12906;SDS011;6521;50.498;8.474;2023-04-24T13:04:51;6.00;;;3.50;;
12906;SDS011;6521;50.498;8.474;2023-04-24T13:07:23;3.63;;;2.90;;
12906;SDS011;6521;50.498;8.474;2023-04-24T13:09:55;6.37;;;3.37;;
12906;SDS011;6521;50.498;8.474;2023-04-24T13:12:27;6.33;;;3.93;;
12906;SDS011;6521;50.498;8.474;2023-04-24T13:14:58;4.63;;;3.97;;
12906;SDS011;6521;50.498;8.474;2023-04-24T13:17:29;6.67;;;4.37;;
12906;SDS011;6521;50.498;8.474;2023-04-24T13:20:00;5.03;;;4.47;;
12906;SDS011;6521;50.498;8.474;2023-04-24T13:22:31;6.60;;;4.40;;
12906;SDS011;6521;50.498;8.474;2023-04-24T13:25:01;17.43;;;4.43;;
12906;SDS011;6521;50.498;8.474;2023-04-24T13:27:32;6.20;;;4.17;;
12906;SDS011;6521;50.498;8.474;2023-04-24T13:30:03;7.57;;;5.83;;
12906;SDS011;6521;50.498;8.474;2023-04-24T13:32:35;10.00;;;5.97;;
12906;SDS011;6521;50.498;8.474;2023-04-24T13:35:05;5.33;;;3.73;;
12906;SDS011;6521;50.498;8.474;2023-04-24T13:37:37;5.80;;;4.40;;
12906;SDS011;6521;50.498;8.474;2023-04-24T13:40:07;4.17;;;3.77;;
12906;SDS011;6521;50.498;8.474;2023-04-24T13:42:39;4.50;;;3.50;;
12906;SDS011;6521;50.498;8.474;2023-04-24T13:45:10;5.57;;;4.40;;
12906;SDS011;6521;50.498;8.474;2023-04-24T13:47:42;5.03;;;4.00;;
12906;SDS011;6521;50.498;8.474;2023-04-24T13:50:13;5.17;;;4.10;;
12906;SDS011;6521;50.498;8.474;2023-04-24T13:52:43;4.30;;;3.63;;
12906;SDS011;6521;50.498;8.474;2023-04-24T13:55:14;6.97;;;4.63;;
12906;SDS011;6521;50.498;8.474;2023-04-24T13:57:45;6.93;;;4.13;;
12906;SDS011;6521;50.498;8.474;2023-04-24T14:00:16;7.67;;;4.77;;
12906;SDS011;6521;50.498;8.474;2023-04-24T14:02:48;5.63;;;3.83;;
12906;SDS011;6521;50.498;8.474;2023-04-24T14:05:19;5.87;;;4.43;;
12906;SDS011;6521;50.498;8.474;2023-04-24T14:07:52;7.67;;;3.93;;
12906;SDS011;6521;50.498;8.474;2023-04-24T14:10:22;4.37;;;3.97;;
12906;SDS011;6521;50.498;8.474;2023-04-24T14:12:53;7.70;;;4.40;;
12906;SDS011;6521;50.498;8.474;2023-04-24T14:15:25;7.17;;;3.73;;
12906;SDS011;6521;50.498;8.474;2023-04-24T14:17:56;4.93;;;3.67;;
12906;SDS011;6521;50.498;8.474;2023-04-24T14:20:27;5.23;;;3.93;;
12906;SDS011;6521;50.498;8.474;2023-04-24T14:22:58;5.30;;;4.10;;
12906;SDS011;6521;50.498;8.474;2023-04-24T14:25:29;5.10;;;3.80;;
12906;SDS011;6521;50.498;8.474;2023-04-24T14:28:00;4.70;;;3.60;;
12906;SDS011;6521;50.498;8.474;2023-04-24T14:30:31;4.47;;;3.53;;
12906;SDS011;6521;50.498;8.474;2023-04-24T14:33:02;6.67;;;3.50;;
12906;SDS011;6521;50.498;8.474;2023-04-24T14:35:34;4.63;;;3.97;;
12906;SDS011;6521;50.498;8.474;2023-04-24T14:38:05;7.83;;;3.80;;
12906;SDS011;6521;50.498;8.474;2023-04-24T14:40:36;5.97;;;3.67;;
12906;SDS011;6521;50.498;8.474;2023-04-24T14:43:08;4.60;;;3.50;;
12906;SDS011;6521;50.498;8.474;2023-04-24T14:45:38;4.63;;;4.10;;
12906;SDS011;6521;50.498;8.474;2023-04-24T14:48:11;6.97;;;4.00;;
12906;SDS011;6521;50.498;8.474;2023-04-24T14:50:42;6.37;;;4.27;;
12906;SDS011;6521;50.498;8.474;2023-04-24T14:53:13;4.77;;;3.70;;
12906;SDS011;6521;50.498;8.474;2023-04-24T14:55:44;10.73;;;4.00;;
12906;SDS011;6521;50.498;8.474;2023-04-24T14:58:15;4.73;;;3.90;;
12906;SDS011;6521;50.498;8.474;2023-04-24T15:00:46;6.13;;;3.80;;
12906;SDS011;6521;50.498;8.474;2023-04-24T15:03:20;5.33;;;4.00;;
12906;SDS011;6521;50.498;8.474;2023-04-24T15:05:51;7.23;;;4.40;;
12906;SDS011;6521;50.498;8.474;2023-04-24T15:08:22;5.97;;;4.23;;
12906;SDS011;6521;50.498;8.474;2023-04-24T15:10:54;5.23;;;4.23;;
12906;SDS011;6521;50.498;8.474;2023-04-24T15:13:25;6.53;;;4.53;;
12906;SDS011;6521;50.498;8.474;2023-04-24T15:15:56;8.57;;;5.30;;
12906;SDS011;6521;50.498;8.474;2023-04-24T15:18:27;6.70;;;4.57;;
12906;SDS011;6521;50.498;8.474;2023-04-24T15:20:59;6.13;;;3.40;;
12906;SDS011;6521;50.498;8.474;2023-04-24T15:23:30;8.70;;;4.37;;
12906;SDS011;6521;50.498;8.474;2023-04-24T15:26:01;7.33;;;3.90;;
12906;SDS011;6521;50.498;8.474;2023-04-24T15:28:32;4.60;;;4.10;;
12906;SDS011;6521;50.498;8.474;2023-04-24T15:31:03;7.60;;;4.13;;
12906;SDS011;6521;50.498;8.474;2023-04-24T15:33:34;10.10;;;4.47;;
12906;SDS011;6521;50.498;8.474;2023-04-24T15:36:04;9.70;;;5.10;;
12906;SDS011;6521;50.498;8.474;2023-04-24T15:38:35;10.57;;;5.57;;
12906;SDS011;6521;50.498;8.474;2023-04-24T15:41:07;9.23;;;5.67;;
12906;SDS011;6521;50.498;8.474;2023-04-24T15:43:38;7.37;;;5.03;;
12906;SDS011;6521;50.498;8.474;2023-04-24T15:46:11;8.57;;;5.57;;
12906;SDS011;6521;50.498;8.474;2023-04-24T15:48:42;9.63;;;6.13;;
12906;SDS011;6521;50.498;8.474;2023-04-24T15:51:13;10.87;;;5.43;;
12906;SDS011;6521;50.498;8.474;2023-04-24T15:53:43;14.07;;;5.00;;
12906;SDS011;6521;50.498;8.474;2023-04-24T15:56:16;8.83;;;4.60;;
12906;SDS011;6521;50.498;8.474;2023-04-24T15:58:47;7.07;;;4.47;;
12906;SDS011;6521;50.498;8.474;2023-04-24T16:01:17;7.47;;;5.10;;
12906;SDS011;6521;50.498;8.474;2023-04-24T16:03:48;8.87;;;5.20;;
12906;SDS011;6521;50.498;8.474;2023-04-24T16:06:19;10.90;;;5.53;;
12906;SDS011;6521;50.498;8.474;2023-04-24T16:08:49;9.07;;;5.33;;
12906;SDS011;6521;50.498;8.474;2023-04-24T16:11:20;10.67;;;5.70;;
12906;SDS011;6521;50.498;8.474;2023-04-24T16:13:51;6.20;;;4.50;;
12906;SDS011;6521;50.498;8.474;2023-04-24T16:16:22;6.13;;;4.30;;
12906;SDS011;6521;50.498;8.474;2023-04-24T16:18:53;7.10;;;4.07;;